North Tisbury, Massachusetts
Current Conditions -  °F | °C
As of 8:53 AM on Sunday 25 Jan 2015 (Local Time) from KMVY Reporting Station
Few Clouds Few Clouds  
Wind Chill: 28°   Ceiling: Unl
Heat Index: 36°   Visibility: 10mi
Dew Point: 28°   Wind: 12mph
Humidity: 73%   Direction: 270°W
Pressure: 29.6"   Gusts: NA
Location:  41.4442°N, 70.5999°W
Report Text: KMVY 251353Z 27010KT 10SM FEW050 02/M02 A2960 RMK AO2 SLP024 T00221022
Loading
Personal Weather Stations






























Interactive Weather Map New forecast layout! Learn more

10-Day Weather Forecast

Advertisements
Track Severe Weather on mobile